createdAt,value
2022-12-28T00:01:37.572Z,2.73
2022-12-28T00:04:09.809Z,2.71
2022-12-28T00:06:39.647Z,2.64
2022-12-28T00:09:14.885Z,2.66
2022-12-28T00:11:45.277Z,2.50
2022-12-28T00:14:17.249Z,2.37
2022-12-28T00:16:48.038Z,2.60
2022-12-28T00:19:19.698Z,2.56
2022-12-28T00:21:51.208Z,2.53
2022-12-28T00:24:26.121Z,2.60
2022-12-28T00:26:57.004Z,2.57
2022-12-28T00:29:27.718Z,2.53
2022-12-28T00:31:57.958Z,2.43
2022-12-28T00:34:27.880Z,2.41
2022-12-28T00:37:10.587Z,2.41
2022-12-28T00:39:46.264Z,2.38
2022-12-28T00:42:18.252Z,2.41
2022-12-28T00:44:48.020Z,2.46
2022-12-28T00:47:19.582Z,2.50
2022-12-28T00:49:50.272Z,2.46
2022-12-28T00:52:20.385Z,2.55
2022-12-28T00:54:53.113Z,2.59
2022-12-28T00:57:23.215Z,2.54
2022-12-28T00:59:54.088Z,2.49
2022-12-28T01:02:24.011Z,2.47
2022-12-28T01:04:55.911Z,2.49
2022-12-28T01:07:26.954Z,2.54
2022-12-28T01:10:02.383Z,2.53
2022-12-28T01:12:37.902Z,2.46
2022-12-28T01:15:12.415Z,2.42
2022-12-28T01:17:43.956Z,2.45
2022-12-28T01:20:14.905Z,2.46
2022-12-28T01:22:44.757Z,2.43
2022-12-28T01:25:18.202Z,2.52
2022-12-28T01:27:48.436Z,2.59
2022-12-28T01:30:19.989Z,2.56
2022-12-28T01:32:49.943Z,2.53
2022-12-28T01:35:19.903Z,2.51
2022-12-28T01:37:49.672Z,2.53
2022-12-28T01:40:22.327Z,2.47
2022-12-28T01:42:52.247Z,2.45
2022-12-28T01:45:24.901Z,2.45
2022-12-28T01:47:59.083Z,2.38
2022-12-28T01:50:32.341Z,2.35
2022-12-28T01:53:08.170Z,2.18
2022-12-28T01:55:44.599Z,2.24
2022-12-28T01:58:20.356Z,2.29
2022-12-28T02:00:50.333Z,2.33
2022-12-28T02:03:25.855Z,2.45
2022-12-28T02:06:00.327Z,2.34
2022-12-28T02:08:38.735Z,2.47
2022-12-28T02:11:18.535Z,2.47
2022-12-28T02:13:51.697Z,2.47
2022-12-28T02:16:21.874Z,2.48
2022-12-28T02:18:53.827Z,2.57
2022-12-28T02:21:41.426Z,2.58
2022-12-28T02:24:40.782Z,2.60
2022-12-28T02:27:28.407Z,2.65
2022-12-28T02:30:10.726Z,2.67
2022-12-28T02:32:54.121Z,2.76
2022-12-28T02:35:36.191Z,2.65
2022-12-28T02:38:14.562Z,2.71
2022-12-28T02:40:51.667Z,2.77
2022-12-28T02:43:22.265Z,2.76
2022-12-28T02:46:09.683Z,2.78
2022-12-28T02:48:56.452Z,2.74
2022-12-28T02:51:47.935Z,2.84
2022-12-28T02:54:52.550Z,2.84
2022-12-28T02:57:42.408Z,2.87
2022-12-28T03:00:19.195Z,2.90
2022-12-28T03:03:24.301Z,2.83
2022-12-28T03:06:19.776Z,2.74
2022-12-28T03:09:03.020Z,2.76
2022-12-28T03:11:43.025Z,2.74
2022-12-28T03:14:23.371Z,2.81
2022-12-28T03:17:13.529Z,2.85
2022-12-28T03:20:05.341Z,2.73
2022-12-28T03:22:55.548Z,2.76
2022-12-28T03:25:43.639Z,2.80
2022-12-28T03:28:34.141Z,2.76
2022-12-28T03:31:13.184Z,2.80
2022-12-28T03:34:06.890Z,2.81
2022-12-28T03:36:59.707Z,2.70
2022-12-28T03:39:43.386Z,2.67
2022-12-28T03:42:32.530Z,2.57
2022-12-28T03:45:13.306Z,2.51
2022-12-28T03:47:47.734Z,2.61
2022-12-28T03:50:19.986Z,2.64
2022-12-28T03:52:54.798Z,2.73
2022-12-28T03:55:28.292Z,2.85
2022-12-28T03:57:58.942Z,2.81
2022-12-28T04:00:32.229Z,2.91
2022-12-28T04:03:02.952Z,2.83
2022-12-28T04:05:33.107Z,2.94
2022-12-28T04:08:06.043Z,2.86
2022-12-28T04:10:37.240Z,2.88
2022-12-28T04:13:07.235Z,2.90
2022-12-28T04:15:57.637Z,3.05
2022-12-28T04:18:27.994Z,3.03
2022-12-28T04:20:58.378Z,3.03
2022-12-28T04:23:31.378Z,3.05
2022-12-28T04:26:23.221Z,3.13
2022-12-28T04:29:00.778Z,3.18
2022-12-28T04:31:34.541Z,3.12
2022-12-28T04:34:12.496Z,3.13
2022-12-28T04:36:47.269Z,3.08
2022-12-28T04:39:23.591Z,3.10
2022-12-28T04:41:56.045Z,3.11
2022-12-28T04:44:25.989Z,3.17
2022-12-28T04:46:56.508Z,3.09
2022-12-28T04:49:27.741Z,3.16
2022-12-28T04:51:57.849Z,3.21
2022-12-28T04:54:30.283Z,3.11
2022-12-28T04:57:02.420Z,3.11
2022-12-28T04:59:32.229Z,3.19
2022-12-28T05:02:02.278Z,3.19
2022-12-28T05:04:32.182Z,3.25
2022-12-28T05:07:02.156Z,3.19
2022-12-28T05:09:35.699Z,3.10
2022-12-28T05:12:05.741Z,3.22
2022-12-28T05:14:37.280Z,3.27
2022-12-28T05:17:07.474Z,3.28
2022-12-28T05:19:37.597Z,3.30
2022-12-28T05:22:11.829Z,3.34
2022-12-28T05:24:45.275Z,3.38
2022-12-28T05:27:15.357Z,3.43
2022-12-28T05:29:45.223Z,3.29
2022-12-28T05:32:15.337Z,3.34
2022-12-28T05:34:45.522Z,3.36
2022-12-28T05:37:21.675Z,3.40
2022-12-28T05:39:56.730Z,3.42
2022-12-28T05:42:27.139Z,3.49
2022-12-28T05:44:57.183Z,3.60
2022-12-28T05:47:29.365Z,3.60
2022-12-28T05:50:00.230Z,3.59
2022-12-28T05:52:32.727Z,3.58
2022-12-28T05:55:05.220Z,3.59
2022-12-28T05:57:35.144Z,3.62
2022-12-28T06:00:05.758Z,3.66
2022-12-28T06:02:42.065Z,3.65
2022-12-28T06:05:12.679Z,3.58
2022-12-28T06:07:43.643Z,3.59
2022-12-28T06:10:17.401Z,3.51
2022-12-28T06:12:47.478Z,3.39
2022-12-28T06:15:17.400Z,3.49
2022-12-28T06:17:47.477Z,3.59
2022-12-28T06:20:17.680Z,3.41
2022-12-28T06:22:48.028Z,3.56
2022-12-28T06:25:20.649Z,3.66
2022-12-28T06:27:50.651Z,3.70
2022-12-28T06:30:23.213Z,3.67
2022-12-28T06:32:53.067Z,3.73
2022-12-28T06:35:24.643Z,3.70
2022-12-28T06:37:54.537Z,3.55
2022-12-28T06:40:39.482Z,3.54
2022-12-28T06:43:17.516Z,3.56
2022-12-28T06:45:57.388Z,3.38
2022-12-28T06:48:27.239Z,3.41
2022-12-28T06:50:58.834Z,3.46
2022-12-28T06:53:31.724Z,3.37
2022-12-28T06:56:06.576Z,3.48
2022-12-28T06:58:38.164Z,3.39
2022-12-28T07:01:13.574Z,3.42
2022-12-28T07:03:43.824Z,3.56
2022-12-28T07:06:15.842Z,3.39
2022-12-28T07:08:46.189Z,3.35
2022-12-28T07:11:21.404Z,3.68
2022-12-28T07:13:52.424Z,3.44
2022-12-28T07:16:25.230Z,3.65
2022-12-28T07:18:55.150Z,3.68
2022-12-28T07:21:27.373Z,3.57
2022-12-28T07:23:58.492Z,3.68
2022-12-28T07:26:33.662Z,3.45
2022-12-28T07:29:05.536Z,3.73
2022-12-28T07:31:44.092Z,3.74
2022-12-28T07:34:16.147Z,3.93
2022-12-28T07:36:49.463Z,3.89
2022-12-28T07:39:19.351Z,3.87
2022-12-28T07:41:56.464Z,3.89
2022-12-28T07:44:29.595Z,3.93
2022-12-28T07:47:00.920Z,3.92
2022-12-28T07:49:30.815Z,4.00
2022-12-28T07:52:00.919Z,4.06
2022-12-28T07:54:30.771Z,4.03
2022-12-28T07:57:06.970Z,4.02
2022-12-28T07:59:39.434Z,4.16
2022-12-28T08:02:10.614Z,4.20
2022-12-28T08:04:41.077Z,4.42
2022-12-28T08:07:11.254Z,4.50
2022-12-28T08:09:41.077Z,4.81
2022-12-28T08:12:13.655Z,4.90
2022-12-28T08:14:43.855Z,4.84
2022-12-28T08:17:17.486Z,4.33
2022-12-28T08:19:52.628Z,4.84
2022-12-28T08:22:22.876Z,4.92
2022-12-28T08:24:53.201Z,5.18
2022-12-28T08:27:25.727Z,5.38
2022-12-28T08:29:55.563Z,5.44
2022-12-28T08:32:25.474Z,5.42
2022-12-28T08:34:55.344Z,5.55
2022-12-28T08:37:25.408Z,5.59
2022-12-28T08:39:55.220Z,5.60
2022-12-28T08:42:28.278Z,5.63
2022-12-28T08:44:58.163Z,5.77
2022-12-28T08:47:28.555Z,5.69
2022-12-28T08:49:59.176Z,5.63
2022-12-28T08:52:29.313Z,5.67
2022-12-28T08:54:59.548Z,5.77
2022-12-28T08:57:32.168Z,5.68
2022-12-28T09:00:02.181Z,5.68
2022-12-28T09:02:32.096Z,5.85
2022-12-28T09:05:02.343Z,5.95
2022-12-28T09:07:32.305Z,6.01
2022-12-28T09:10:04.664Z,5.80
2022-12-28T09:12:38.563Z,6.11
2022-12-28T09:15:09.778Z,6.26
2022-12-28T09:17:39.998Z,6.38
2022-12-28T09:20:11.028Z,6.75
2022-12-28T09:22:40.870Z,6.98
2022-12-28T09:25:13.626Z,7.51
2022-12-28T09:27:46.516Z,7.97
2022-12-28T09:30:17.848Z,7.68
2022-12-28T09:33:07.668Z,8.05
2022-12-28T09:35:37.479Z,8.20
2022-12-28T09:38:07.517Z,8.32
2022-12-28T09:40:39.273Z,8.41
2022-12-28T09:43:14.950Z,8.67
2022-12-28T09:45:49.119Z,9.61
2022-12-28T09:48:26.918Z,10.69
2022-12-28T09:50:57.920Z,12.43
2022-12-28T09:53:33.522Z,12.57
2022-12-28T09:56:08.630Z,12.61
2022-12-28T09:58:48.192Z,11.85
2022-12-28T10:01:21.938Z,11.01
2022-12-28T10:03:52.451Z,10.90
2022-12-28T10:06:27.921Z,10.42
2022-12-28T10:09:01.477Z,10.59
2022-12-28T10:11:36.296Z,10.46
2022-12-28T10:14:21.904Z,9.99
2022-12-28T10:16:51.779Z,9.69
2022-12-28T10:19:26.064Z,9.57
2022-12-28T10:22:03.014Z,9.43
2022-12-28T10:24:33.834Z,9.51
2022-12-28T10:27:07.965Z,9.43
2022-12-28T10:29:41.009Z,9.16
2022-12-28T10:32:12.808Z,9.03
2022-12-28T10:34:58.746Z,9.05
2022-12-28T10:37:33.050Z,9.41
2022-12-28T10:40:06.958Z,9.49
2022-12-28T10:42:43.045Z,9.43
2022-12-28T10:45:25.619Z,9.60
2022-12-28T10:47:58.512Z,9.90
2022-12-28T10:50:44.992Z,9.82
2022-12-28T10:53:30.686Z,9.78
2022-12-28T10:56:10.259Z,9.87
2022-12-28T10:58:40.238Z,10.02
2022-12-28T11:01:21.328Z,10.22
2022-12-28T11:04:06.552Z,10.79
2022-12-28T11:06:38.537Z,11.08
2022-12-28T11:09:18.904Z,10.78
2022-12-28T11:11:52.397Z,10.77
2022-12-28T11:14:33.376Z,10.78
2022-12-28T11:17:21.073Z,11.08
2022-12-28T11:19:55.058Z,10.57
2022-12-28T11:22:35.229Z,11.33
2022-12-28T11:25:08.808Z,10.63
2022-12-28T11:27:39.448Z,10.80
2022-12-28T11:30:18.115Z,11.07
2022-12-28T11:32:59.422Z,10.56
2022-12-28T11:35:33.061Z,10.65
2022-12-28T11:38:06.118Z,10.37
2022-12-28T11:40:55.789Z,10.22
2022-12-28T11:43:43.576Z,10.15
2022-12-28T11:46:42.283Z,10.25
2022-12-28T11:49:34.969Z,10.28
2022-12-28T11:52:46.266Z,10.17
2022-12-28T11:55:57.427Z,10.26
2022-12-28T11:59:09.637Z,9.95
2022-12-28T12:02:00.994Z,10.05
2022-12-28T12:04:49.775Z,10.11
2022-12-28T12:07:31.208Z,10.41
2022-12-28T12:10:31.927Z,10.17
2022-12-28T12:13:02.748Z,10.36
2022-12-28T12:15:45.752Z,10.38
2022-12-28T12:18:23.982Z,10.51
2022-12-28T12:21:07.663Z,10.72
2022-12-28T12:23:48.991Z,10.15
2022-12-28T12:26:28.308Z,9.92
2022-12-28T12:29:05.118Z,10.53
2022-12-28T12:31:44.190Z,10.56
2022-12-28T12:34:24.993Z,10.09
2022-12-28T12:37:29.132Z,10.00
2022-12-28T12:40:31.712Z,9.97
2022-12-28T12:43:25.812Z,10.06
2022-12-28T12:46:14.798Z,10.16
2022-12-28T12:49:10.634Z,10.36
2022-12-28T12:51:53.835Z,10.41
2022-12-28T12:54:46.632Z,10.46
2022-12-28T12:57:26.762Z,10.44
2022-12-28T13:00:14.995Z,10.36
2022-12-28T13:03:09.591Z,10.42
2022-12-28T13:05:45.305Z,10.35
2022-12-28T13:08:25.901Z,10.46
2022-12-28T13:10:59.131Z,10.45
2022-12-28T13:13:35.676Z,10.54
2022-12-28T13:16:12.177Z,10.68
2022-12-28T13:18:45.087Z,10.50
2022-12-28T13:21:22.339Z,10.62
2022-12-28T13:23:54.625Z,10.71
2022-12-28T13:26:30.922Z,10.68
2022-12-28T13:29:03.824Z,10.57
2022-12-28T13:31:42.350Z,10.74
2022-12-28T13:34:21.627Z,10.69
2022-12-28T13:36:54.422Z,10.43
2022-12-28T13:39:26.288Z,10.52
2022-12-28T13:42:05.248Z,10.36
2022-12-28T13:44:46.135Z,10.33
2022-12-28T13:47:28.287Z,10.17
2022-12-28T13:50:04.177Z,10.22
2022-12-28T13:52:42.177Z,10.02
2022-12-28T13:55:19.767Z,10.04
2022-12-28T13:58:00.106Z,9.99
2022-12-28T14:00:33.422Z,9.95
2022-12-28T14:03:06.851Z,9.89
2022-12-28T14:05:36.918Z,9.88
2022-12-28T14:08:09.837Z,9.82
2022-12-28T14:10:40.997Z,9.77
2022-12-28T14:13:14.595Z,9.72
2022-12-28T14:15:46.048Z,9.73
2022-12-28T14:18:18.602Z,9.78
2022-12-28T14:20:49.877Z,9.76
2022-12-28T14:23:24.229Z,9.67
2022-12-28T14:25:59.684Z,9.56
2022-12-28T14:28:40.978Z,9.56
2022-12-28T14:31:16.212Z,9.41
2022-12-28T14:33:55.687Z,9.40
2022-12-28T14:36:31.423Z,9.17
2022-12-28T14:39:06.629Z,9.32
2022-12-28T14:41:42.543Z,9.08
2022-12-28T14:44:24.661Z,8.88
2022-12-28T14:46:56.020Z,8.99
2022-12-28T14:49:42.682Z,8.94
2022-12-28T14:52:44.824Z,8.93
2022-12-28T14:55:33.445Z,8.89
2022-12-28T14:58:08.901Z,8.77
2022-12-28T15:00:41.455Z,8.71
2022-12-28T15:03:19.572Z,8.62
2022-12-28T15:05:52.810Z,8.77
2022-12-28T15:08:23.107Z,8.62
2022-12-28T15:10:55.711Z,8.57
2022-12-28T15:13:30.196Z,8.53
2022-12-28T15:16:04.808Z,8.53
2022-12-28T15:18:34.868Z,8.46
2022-12-28T15:21:07.311Z,8.29
2022-12-28T15:23:37.932Z,8.24
2022-12-28T15:26:11.447Z,8.16
2022-12-28T15:28:45.053Z,8.16
2022-12-28T15:31:20.529Z,7.94
2022-12-28T15:33:52.105Z,8.03
2022-12-28T15:36:24.949Z,7.83
2022-12-28T15:38:54.901Z,7.80
2022-12-28T15:41:38.781Z,7.68
2022-12-28T15:44:09.204Z,7.72
2022-12-28T15:46:45.493Z,7.50
2022-12-28T15:49:17.616Z,7.44
2022-12-28T15:51:51.869Z,7.44
2022-12-28T15:54:22.990Z,7.22
2022-12-28T15:56:59.158Z,7.14
2022-12-28T15:59:29.646Z,7.14
2022-12-28T16:02:02.550Z,7.02
2022-12-28T16:04:33.036Z,7.00
2022-12-28T16:07:03.636Z,6.89
2022-12-28T16:09:36.611Z,6.80
2022-12-28T16:12:07.312Z,6.76
2022-12-28T16:14:37.227Z,6.79
2022-12-28T16:17:09.786Z,6.67
2022-12-28T16:19:39.652Z,6.64
2022-12-28T16:22:10.192Z,6.52
2022-12-28T16:24:40.412Z,6.52
2022-12-28T16:27:12.462Z,6.45
2022-12-28T16:29:42.706Z,6.40
2022-12-28T16:32:15.980Z,6.25
2022-12-28T16:34:48.763Z,6.22
2022-12-28T16:37:21.054Z,6.29
2022-12-28T16:39:54.225Z,6.33
2022-12-28T16:42:24.078Z,6.28
2022-12-28T16:44:54.304Z,6.26
2022-12-28T16:47:27.372Z,6.23
2022-12-28T16:49:58.674Z,6.16
2022-12-28T16:52:28.919Z,6.14
2022-12-28T16:54:59.511Z,6.00
2022-12-28T16:57:30.423Z,6.01
2022-12-28T17:00:00.277Z,5.96
2022-12-28T17:02:36.665Z,5.95
2022-12-28T17:05:07.616Z,6.04
2022-12-28T17:07:44.595Z,6.04
2022-12-28T17:10:16.449Z,6.25
2022-12-28T17:12:48.025Z,5.96
2022-12-28T17:15:19.208Z,6.02
2022-12-28T17:17:52.069Z,6.03
2022-12-28T17:20:22.403Z,6.11
2022-12-28T17:22:54.002Z,6.05
2022-12-28T17:25:24.096Z,5.97
2022-12-28T17:27:54.394Z,5.97
2022-12-28T17:30:25.492Z,5.94
2022-12-28T17:33:00.876Z,5.93
2022-12-28T17:35:32.908Z,5.85
2022-12-28T17:38:03.062Z,5.89
2022-12-28T17:40:33.015Z,5.83
2022-12-28T17:43:02.848Z,5.55
2022-12-28T17:45:35.261Z,5.65
2022-12-28T17:48:08.421Z,5.67
2022-12-28T17:50:38.291Z,5.72
2022-12-28T17:53:08.218Z,5.79
2022-12-28T17:55:39.539Z,5.78
2022-12-28T17:58:09.845Z,5.70
2022-12-28T18:00:42.119Z,5.65
2022-12-28T18:03:15.172Z,5.61
2022-12-28T18:05:45.179Z,5.58
2022-12-28T18:08:15.396Z,5.62
2022-12-28T18:10:46.696Z,5.44
2022-12-28T18:13:18.567Z,5.35
2022-12-28T18:15:50.640Z,5.36
2022-12-28T18:18:23.287Z,5.45
2022-12-28T18:21:01.516Z,5.59
2022-12-28T18:23:32.596Z,5.40
2022-12-28T18:26:07.491Z,5.34
2022-12-28T18:28:38.238Z,5.36
2022-12-28T18:31:11.451Z,5.31
2022-12-28T18:33:44.149Z,5.33
2022-12-28T18:36:18.003Z,5.25
2022-12-28T18:38:50.178Z,5.29
2022-12-28T18:41:25.497Z,5.15
2022-12-28T18:43:57.353Z,5.12
2022-12-28T18:46:27.287Z,5.34
2022-12-28T18:49:00.574Z,5.30
2022-12-28T18:51:30.730Z,5.32
2022-12-28T18:54:02.033Z,5.52
2022-12-28T18:56:33.651Z,5.45
2022-12-28T18:59:03.924Z,5.47
2022-12-28T19:04:31.484Z,5.48
2022-12-28T19:07:01.661Z,5.38
2022-12-28T19:09:31.571Z,5.52
2022-12-28T19:12:01.848Z,5.66
2022-12-28T19:14:32.013Z,5.43
2022-12-28T19:17:02.201Z,5.45
2022-12-28T19:19:34.603Z,5.58
2022-12-28T19:22:05.722Z,5.33
2022-12-28T19:24:37.774Z,5.37
2022-12-28T19:27:08.175Z,5.38
2022-12-28T19:29:38.119Z,5.34
2022-12-28T19:32:08.615Z,5.26
2022-12-28T19:34:41.821Z,5.27
2022-12-28T19:37:12.326Z,5.15
2022-12-28T19:39:42.439Z,5.08
2022-12-28T19:42:12.292Z,5.01
2022-12-28T19:44:42.413Z,4.99
2022-12-28T19:47:12.910Z,5.12
2022-12-28T19:49:45.489Z,5.05
2022-12-28T19:52:15.915Z,5.10
2022-12-28T19:54:47.918Z,4.99
2022-12-28T19:57:17.757Z,5.05
2022-12-28T19:59:47.787Z,5.11
2022-12-28T20:02:18.377Z,5.04
2022-12-28T20:04:51.099Z,4.95
2022-12-28T20:07:21.167Z,4.82
2022-12-28T20:09:52.177Z,4.89
2022-12-28T20:12:23.971Z,4.95
2022-12-28T20:14:54.004Z,4.95
2022-12-28T20:17:23.982Z,4.96
2022-12-28T20:19:56.722Z,4.97
2022-12-28T20:22:27.179Z,4.91
2022-12-28T20:24:57.408Z,4.90
2022-12-28T20:27:30.605Z,4.98
2022-12-28T20:30:00.751Z,5.03
2022-12-28T20:32:31.082Z,5.06
2022-12-28T20:35:03.987Z,5.07
2022-12-28T20:37:36.676Z,5.03
2022-12-28T20:40:07.713Z,4.95
2022-12-28T20:42:50.336Z,4.94
2022-12-28T20:45:21.091Z,5.02
2022-12-28T20:47:51.380Z,5.10
2022-12-28T20:50:24.701Z,5.12
2022-12-28T20:52:57.443Z,5.00
2022-12-28T20:55:27.685Z,5.06
2022-12-28T20:57:58.159Z,5.14
2022-12-28T21:00:28.162Z,5.17
2022-12-28T21:02:58.275Z,5.15
2022-12-28T21:05:31.398Z,5.15
2022-12-28T21:08:01.538Z,5.18
2022-12-28T21:10:33.567Z,5.26
2022-12-28T21:13:03.819Z,5.41
2022-12-28T21:15:34.262Z,5.36
2022-12-28T21:18:04.472Z,5.37
2022-12-28T21:20:39.252Z,5.36
2022-12-28T21:23:09.559Z,5.35
2022-12-28T21:25:39.967Z,5.34
2022-12-28T21:28:12.312Z,5.41
2022-12-28T21:30:42.700Z,5.41
2022-12-28T21:33:13.874Z,5.34
2022-12-28T21:35:46.503Z,5.26
2022-12-28T21:38:16.707Z,5.39
2022-12-28T21:40:47.524Z,5.39
2022-12-28T21:43:18.556Z,5.37
2022-12-28T21:46:02.265Z,5.34
2022-12-28T21:48:34.377Z,5.38
2022-12-28T21:51:31.459Z,5.30
2022-12-28T21:54:03.505Z,5.26
2022-12-28T21:56:35.694Z,5.27
2022-12-28T21:59:06.419Z,5.33
2022-12-28T22:01:49.629Z,5.28
2022-12-28T22:04:34.546Z,5.22
2022-12-28T22:07:08.970Z,5.25
2022-12-28T22:09:52.181Z,5.20
2022-12-28T22:12:41.728Z,5.10
2022-12-28T22:15:26.596Z,5.16
2022-12-28T22:17:59.222Z,5.15
2022-12-28T22:20:31.803Z,5.11
2022-12-28T22:23:05.741Z,5.10
2022-12-28T22:25:38.534Z,5.07
2022-12-28T22:28:09.828Z,5.06
2022-12-28T22:30:40.155Z,5.02
2022-12-28T22:33:10.477Z,5.07
2022-12-28T22:35:40.364Z,5.01
2022-12-28T22:38:13.689Z,5.06
2022-12-28T22:40:47.794Z,5.07
2022-12-28T22:43:18.256Z,5.07
2022-12-28T22:45:48.407Z,4.98
2022-12-28T22:48:19.457Z,5.09
2022-12-28T22:50:49.615Z,5.08
2022-12-28T22:53:23.979Z,5.08
2022-12-28T22:56:01.464Z,5.14
2022-12-28T22:58:32.810Z,5.08
2022-12-28T23:01:07.818Z,5.10
2022-12-28T23:03:52.165Z,5.10
2022-12-28T23:06:23.533Z,5.10
2022-12-28T23:08:56.904Z,5.11
2022-12-28T23:11:40.518Z,5.11
2022-12-28T23:14:26.980Z,5.20
2022-12-28T23:16:57.981Z,5.18
2022-12-28T23:19:40.444Z,5.18
2022-12-28T23:22:27.199Z,5.18
2022-12-28T23:25:13.214Z,5.24
2022-12-28T23:27:47.274Z,5.22
2022-12-28T23:30:20.122Z,5.28
2022-12-28T23:32:52.153Z,5.31
2022-12-28T23:35:24.509Z,5.30
2022-12-28T23:37:55.651Z,5.28
2022-12-28T23:40:29.035Z,5.36
2022-12-28T23:42:59.068Z,5.31
2022-12-28T23:45:29.946Z,5.38
2022-12-28T23:47:59.796Z,5.35
2022-12-28T23:50:32.451Z,5.28
2022-12-28T23:53:06.254Z,5.35
2022-12-28T23:55:40.687Z,5.32
2022-12-28T23:58:11.679Z,5.32
